aviador You're here:

KHSI Decoded Metar

HASTINGS in NE, USA
Report Time2018-04-24 01:53:00
UTC Time2018-04-24 02:53:16
Flight Rules vfr VFR
WindCalm
Visibility9999 m
Phenomena:N/A
Clouds:N/A
Expected CloudBase > 5,600 ft AGL from Temp-Dew spread
CeilingNone
Temp17°C (ISA +6)
Dew Point03°C (39% RH)
AAT15.5°C
QNH1018 hPa
Density Alt2,566 ft
Elevation1,939 ft
Report Wrong Elevation
Raw Report
KHSI 240153Z AUTO 00000KT 10SM CLR 17/03 A3007 RMK AO2 SLP179
T01720028=

Extra information for KHSI:More info

Metar Taf Metar & Taf Last 4 Metars F.Rules Stats Wind Profile Meteogram Temp Stats Airport Information Weather charts Add Link Nearby VenuesMetar ALERT Operation Metar Decoded Social comments

AIRNAV info for KHSI